Time;durP1;ratioP1;P1;durP2;ratioP2;P2;SDS_P1;SDS_P2;PMS_P1;PMS_P2;Temp;Humidity;BMP_temperature;BMP_pressure;BME280_temperature;BME280_humidity;BME280_pressure;Samples;Min_cycle;Max_cycle;Signal;HPM_P1;HPM_P2
2022/01/08 00:02:11;;;;;;;19.77;8.88;;;4.80;99.90;;;;;;5056083;28;20103;-76
2022/01/08 00:04:36;;;;;;;14.35;9.63;;;4.70;99.90;;;;;;5057006;28;20041;-75
2022/01/08 00:07:02;;;;;;;16.50;8.70;;;4.70;99.90;;;;;;5056782;28;20029;-75
2022/01/08 00:09:28;;;;;;;18.92;9.00;;;4.80;99.90;;;;;;5055341;28;20491;-75
2022/01/08 00:11:54;;;;;;;17.48;9.38;;;4.80;99.90;;;;;;5060990;28;20032;-75
2022/01/08 00:14:22;;;;;;;12.15;8.23;;;4.80;99.90;;;;;;5066358;28;20048;-74
2022/01/08 00:16:48;;;;;;;13.75;8.75;;;4.80;99.90;;;;;;5055635;28;20029;-75
2022/01/08 00:19:14;;;;;;;12.98;8.10;;;4.80;99.90;;;;;;5054966;28;20037;-75
2022/01/08 00:21:40;;;;;;;14.38;8.98;;;4.90;99.90;;;;;;5050324;28;20063;-76
2022/01/08 00:24:06;;;;;;;18.38;9.10;;;4.90;99.90;;;;;;5055643;28;20064;-74
2022/01/08 00:26:32;;;;;;;12.40;8.88;;;4.90;99.90;;;;;;5042505;28;20049;-76
2022/01/08 00:28:59;;;;;;;12.02;8.60;;;5.00;99.90;;;;;;5025496;28;20109;-75
2022/01/08 00:31:24;;;;;;;17.88;8.73;;;5.00;99.90;;;;;;5026590;28;20084;-75
2022/01/08 00:33:52;;;;;;;14.07;8.40;;;5.10;99.90;;;;;;5032228;28;20436;-75
2022/01/08 00:36:17;;;;;;;12.38;8.63;;;5.10;99.90;;;;;;5020283;28;20025;-75
2022/01/08 00:38:43;;;;;;;14.82;8.65;;;5.10;99.90;;;;;;5020914;28;20373;-75
2022/01/08 00:41:09;;;;;;;14.65;9.32;;;5.20;99.90;;;;;;5023940;28;20025;-75
2022/01/08 00:43:34;;;;;;;14.25;8.88;;;5.20;99.80;;;;;;5043078;28;20488;-76
2022/01/08 00:46:00;;;;;;;14.13;8.95;;;5.20;99.80;;;;;;5054533;28;20027;-75
2022/01/08 00:48:26;;;;;;;13.98;8.27;;;5.20;99.90;;;;;;5055179;28;20021;-74
2022/01/08 00:50:52;;;;;;;15.98;9.50;;;5.20;99.60;;;;;;5054845;28;20040;-76
2022/01/08 00:53:19;;;;;;;12.95;8.63;;;5.20;99.60;;;;;;5054131;28;20041;-76
2022/01/08 00:55:45;;;;;;;14.23;9.02;;;5.20;99.50;;;;;;5054926;28;20021;-77
2022/01/08 00:58:10;;;;;;;14.13;9.77;;;5.20;99.70;;;;;;5054859;28;20054;-77
2022/01/08 01:00:37;;;;;;;12.15;8.93;;;5.10;99.40;;;;;;5054657;28;20500;-76
2022/01/08 01:03:02;;;;;;;13.13;8.50;;;5.10;99.30;;;;;;5054839;28;20029;-76
2022/01/08 01:05:28;;;;;;;14.45;9.25;;;5.00;99.20;;;;;;5054432;28;20029;-75
2022/01/08 01:07:54;;;;;;;13.98;9.80;;;5.00;99.20;;;;;;5055325;28;20033;-75
2022/01/08 01:10:20;;;;;;;16.67;9.93;;;5.00;99.20;;;;;;5064952;28;20033;-77
2022/01/08 01:12:46;;;;;;;17.88;9.63;;;5.00;99.00;;;;;;5060937;28;20037;-75
2022/01/08 01:15:14;;;;;;;12.73;8.63;;;4.80;99.00;;;;;;5054659;28;20025;-75
2022/01/08 01:17:40;;;;;;;15.63;9.90;;;4.70;99.10;;;;;;5053606;28;20090;-75
2022/01/08 01:20:08;;;;;;;16.13;9.70;;;4.70;99.20;;;;;;5054006;28;20025;-74
2022/01/08 01:25:24;;;;;;;16.90;9.73;;;4.40;99.50;;;;;;5053926;28;20036;-76
2022/01/08 01:28:11;;;;;;;18.10;9.73;;;4.30;99.70;;;;;;5054335;28;20473;-76
2022/01/08 01:41:34;;;;;;;19.52;10.55;;;3.90;99.90;;;;;;5053452;28;20558;-74
2022/01/08 01:49:17;;;;;;;19.42;10.30;;;3.80;99.90;;;;;;5052276;28;20151;-75
2022/01/08 01:51:43;;;;;;;19.77;9.60;;;3.80;99.90;;;;;;5054002;28;20043;-75
2022/01/08 01:54:09;;;;;;;17.70;10.55;;;3.70;99.90;;;;;;5053601;28;20037;-75
2022/01/08 01:56:36;;;;;;;17.42;10.57;;;3.70;99.90;;;;;;5053582;28;20495;-75
2022/01/08 01:59:02;;;;;;;19.20;10.68;;;3.70;99.90;;;;;;5053191;28;20037;-75
2022/01/08 02:01:28;;;;;;;16.50;10.85;;;3.70;99.90;;;;;;5053457;28;20029;-76
2022/01/08 02:03:54;;;;;;;19.25;10.30;;;3.70;99.90;;;;;;5053074;28;20451;-76
2022/01/08 02:06:20;;;;;;;17.80;10.65;;;3.70;99.90;;;;;;5053626;28;20017;-75
2022/01/08 02:08:46;;;;;;;14.73;10.00;;;3.60;99.90;;;;;;5053920;28;20032;-76
2022/01/08 02:11:12;;;;;;;20.70;11.30;;;3.60;99.90;;;;;;5054064;28;20052;-75
2022/01/08 02:13:37;;;;;;;15.85;11.10;;;3.60;99.90;;;;;;5053485;28;20025;-75
2022/01/08 02:16:06;;;;;;;17.25;10.13;;;3.60;99.90;;;;;;5052425;28;20029;-76
2022/01/08 02:18:33;;;;;;;19.58;10.48;;;3.60;99.90;;;;;;5053268;28;20033;-76
2022/01/08 02:21:00;;;;;;;17.35;10.50;;;3.60;99.90;;;;;;5051997;28;20388;-77
2022/01/08 02:23:26;;;;;;;15.80;11.25;;;3.60;99.90;;;;;;5052997;28;20392;-77
2022/01/08 02:26:12;;;;;;;15.80;10.20;;;3.60;99.90;;;;;;5053141;28;20078;-77
2022/01/08 02:28:39;;;;;;;15.77;10.57;;;3.60;99.90;;;;;;5052615;28;20623;-76
2022/01/08 02:31:05;;;;;;;14.88;10.27;;;3.60;99.90;;;;;;5052951;28;20021;-76
2022/01/08 02:33:31;;;;;;;17.77;9.80;;;3.60;99.90;;;;;;5053007;28;20028;-75
2022/01/08 02:36:05;;;;;;;18.60;10.07;;;3.70;99.90;;;;;;5052594;28;20033;-76
2022/01/08 02:38:30;;;;;;;14.93;10.45;;;3.80;99.90;;;;;;5051879;28;20477;-76
2022/01/08 02:41:01;;;;;;;18.13;10.30;;;3.80;99.90;;;;;;5052664;28;20079;-76
2022/01/08 02:43:28;;;;;;;17.92;9.85;;;3.90;99.90;;;;;;5052888;28;20123;-76
2022/01/08 02:45:54;;;;;;;20.45;9.93;;;4.00;99.90;;;;;;5046528;28;20122;-76
2022/01/08 02:48:20;;;;;;;20.73;9.82;;;4.00;99.90;;;;;;5052524;28;20037;-76
2022/01/08 02:50:46;;;;;;;18.55;10.48;;;4.00;99.90;;;;;;5052436;28;20029;-75
2022/01/08 02:53:12;;;;;;;22.70;10.57;;;4.10;99.90;;;;;;5052333;28;20028;-76
2022/01/08 02:55:38;;;;;;;16.52;9.60;;;4.10;99.90;;;;;;5052236;28;20041;-76
2022/01/08 02:58:04;;;;;;;17.08;9.57;;;4.10;99.90;;;;;;5052375;28;20029;-76
2022/01/08 03:00:30;;;;;;;15.18;9.13;;;4.10;99.90;;;;;;5052361;28;20488;-77
2022/01/08 03:02:56;;;;;;;14.45;9.93;;;4.10;99.90;;;;;;5052388;28;20094;-76
2022/01/08 03:05:21;;;;;;;17.02;9.27;;;4.20;99.90;;;;;;5053078;28;20040;-76
2022/01/08 03:07:49;;;;;;;16.35;8.80;;;4.20;99.90;;;;;;5053159;28;20096;-75
2022/01/08 03:10:16;;;;;;;13.02;8.77;;;4.20;99.90;;;;;;5051786;28;20033;-75
2022/01/08 03:12:43;;;;;;;16.65;8.32;;;4.20;99.90;;;;;;5051660;28;20530;-75
2022/01/08 03:15:11;;;;;;;16.48;8.93;;;4.20;99.90;;;;;;5032156;28;20030;-76
2022/01/08 03:17:37;;;;;;;18.38;8.45;;;4.20;99.70;;;;;;5019482;28;20034;-76
2022/01/08 03:20:09;;;;;;;15.77;8.48;;;4.10;99.80;;;;;;5017833;28;20026;-76
2022/01/08 03:22:35;;;;;;;17.67;8.15;;;4.00;99.90;;;;;;5015451;28;20539;-75
2022/01/08 03:25:03;;;;;;;17.17;8.45;;;4.00;99.90;;;;;;5013506;28;20033;-76
2022/01/08 03:27:28;;;;;;;16.33;8.38;;;3.90;99.90;;;;;;5026820;28;20040;-75
2022/01/08 03:29:54;;;;;;;12.52;7.25;;;3.90;99.90;;;;;;5041197;28;20021;-75
2022/01/08 03:32:20;;;;;;;13.57;8.27;;;3.80;99.90;;;;;;5051348;28;20055;-75
2022/01/08 03:34:46;;;;;;;16.15;8.63;;;3.80;99.90;;;;;;5051522;28;20023;-75
2022/01/08 03:37:12;;;;;;;12.65;8.38;;;3.70;99.90;;;;;;5051419;28;20103;-75
2022/01/08 03:39:38;;;;;;;14.70;8.05;;;3.70;99.90;;;;;;5051839;28;20021;-75
2022/01/08 03:42:03;;;;;;;18.10;9.02;;;3.70;99.90;;;;;;5051661;28;20112;-75
2022/01/08 03:44:29;;;;;;;17.05;8.27;;;3.70;99.90;;;;;;5052240;28;20472;-75
2022/01/08 03:47:10;;;;;;;14.00;8.48;;;3.80;99.90;;;;;;5051475;28;20052;-75
2022/01/08 03:49:36;;;;;;;16.85;8.77;;;3.80;99.90;;;;;;5047611;28;20025;-75
2022/01/08 03:52:02;;;;;;;17.08;8.73;;;3.80;99.90;;;;;;5051627;28;20025;-75
2022/01/08 03:54:28;;;;;;;16.02;8.73;;;3.80;99.90;;;;;;5051303;28;20025;-74
2022/01/08 03:56:53;;;;;;;15.02;8.30;;;3.80;99.90;;;;;;5052090;28;20502;-75
2022/01/08 03:59:19;;;;;;;18.65;8.20;;;3.80;99.90;;;;;;5051073;28;20048;-76
2022/01/08 04:01:45;;;;;;;15.73;8.48;;;3.80;99.90;;;;;;5051900;28;20562;-76
2022/01/08 04:04:10;;;;;;;13.73;8.68;;;3.70;99.90;;;;;;5050986;28;20515;-76
2022/01/08 04:06:36;;;;;;;15.50;8.85;;;3.70;99.90;;;;;;5052787;28;20071;-76
2022/01/08 04:09:02;;;;;;;14.45;8.10;;;3.70;99.90;;;;;;5051453;28;20029;-76
2022/01/08 04:11:28;;;;;;;18.85;8.50;;;3.70;99.90;;;;;;5051834;28;20373;-76
2022/01/08 04:13:55;;;;;;;20.05;8.48;;;3.60;99.90;;;;;;5051883;28;20032;-76
2022/01/08 04:16:28;;;;;;;12.43;7.57;;;3.60;99.90;;;;;;5051724;28;20448;-76
2022/01/08 04:18:54;;;;;;;15.73;7.82;;;3.60;99.90;;;;;;5051181;28;20529;-76
2022/01/08 04:23:54;;;;;;;11.48;6.57;;;3.60;99.90;;;;;;5050977;28;20049;-76
2022/01/08 04:26:22;;;;;;;13.57;7.05;;;3.50;99.90;;;;;;5047045;28;20033;-76
2022/01/08 04:28:48;;;;;;;14.80;7.55;;;3.50;99.90;;;;;;5051394;28;20419;-75
2022/01/08 04:31:15;;;;;;;13.07;7.53;;;3.50;99.90;;;;;;5051160;28;20049;-76
2022/01/08 04:33:41;;;;;;;14.57;6.70;;;3.50;99.90;;;;;;5051705;28;20052;-76
2022/01/08 04:36:07;;;;;;;15.30;7.40;;;3.50;99.90;;;;;;5051044;28;20460;-75
2022/01/08 04:38:33;;;;;;;20.90;7.85;;;3.50;99.90;;;;;;5051386;28;20104;-75
2022/01/08 04:40:59;;;;;;;11.65;7.13;;;3.50;99.90;;;;;;5051043;28;20040;-75
2022/01/08 04:43:25;;;;;;;12.30;6.90;;;3.50;99.90;;;;;;5047300;28;20037;-75
2022/01/08 04:45:51;;;;;;;14.65;7.68;;;3.40;99.90;;;;;;5053846;28;20388;-75
2022/01/08 04:48:17;;;;;;;13.50;7.50;;;3.40;99.90;;;;;;5055536;28;20037;-77
2022/01/08 04:50:43;;;;;;;15.75;7.40;;;3.40;99.90;;;;;;5054069;28;20078;-76
2022/01/08 04:53:10;;;;;;;12.27;7.50;;;3.50;99.90;;;;;;5055033;28;20059;-75
2022/01/08 04:55:36;;;;;;;17.50;7.40;;;3.50;99.90;;;;;;5054705;28;20037;-75
2022/01/08 04:58:02;;;;;;;15.50;7.80;;;3.50;99.90;;;;;;5054656;28;20079;-75
2022/01/08 05:00:28;;;;;;;15.55;8.05;;;3.50;99.90;;;;;;5053901;28;20047;-75
2022/01/08 05:02:54;;;;;;;18.67;7.82;;;3.50;99.90;;;;;;5054547;28;20112;-75
2022/01/08 05:05:19;;;;;;;13.85;7.07;;;3.50;99.90;;;;;;5055162;28;20433;-75
2022/01/08 05:07:45;;;;;;;15.00;7.47;;;3.50;99.90;;;;;;5055122;28;20372;-75
2022/01/08 05:10:12;;;;;;;17.45;8.05;;;3.50;99.90;;;;;;5053844;28;20396;-75
2022/01/08 05:12:38;;;;;;;16.60;8.48;;;3.50;99.90;;;;;;5052680;28;20025;-75
2022/01/08 05:15:05;;;;;;;12.77;7.53;;;3.40;99.90;;;;;;5054275;28;20759;-75
2022/01/08 05:17:38;;;;;;;19.50;6.95;;;3.50;99.90;;;;;;5054534;28;20025;-76
2022/01/08 05:20:09;;;;;;;17.45;7.32;;;3.50;99.90;;;;;;5054379;28;20396;-75
2022/01/08 05:25:14;;;;;;;18.77;8.15;;;3.50;99.90;;;;;;5054242;28;20041;-75
2022/01/08 05:27:40;;;;;;;15.85;7.50;;;3.60;99.90;;;;;;5053840;28;20082;-75
2022/01/08 05:30:06;;;;;;;16.17;7.97;;;3.60;99.90;;;;;;5054100;28;20021;-75
2022/01/08 05:32:32;;;;;;;12.48;7.28;;;3.60;99.90;;;;;;5053796;28;20029;-75
2022/01/08 05:34:58;;;;;;;15.35;7.38;;;3.60;99.90;;;;;;5054108;28;20035;-74
2022/01/08 05:37:24;;;;;;;14.40;7.60;;;3.50;99.90;;;;;;5054146;28;20067;-75
2022/01/08 05:39:50;;;;;;;16.25;7.90;;;3.50;99.90;;;;;;5053970;28;20029;-74
2022/01/08 05:42:16;;;;;;;13.20;7.35;;;3.50;99.90;;;;;;5052790;28;20472;-74
2022/01/08 05:44:42;;;;;;;14.98;7.15;;;3.40;99.90;;;;;;5054200;28;20087;-74
2022/01/08 05:47:08;;;;;;;11.45;6.60;;;3.40;99.90;;;;;;5053637;28;20090;-75
2022/01/08 05:49:33;;;;;;;16.08;6.78;;;3.40;99.90;;;;;;5053766;28;20028;-74
2022/01/08 05:51:59;;;;;;;17.45;6.97;;;3.40;99.90;;;;;;5053547;28;20431;-74
2022/01/08 05:54:25;;;;;;;16.65;7.18;;;3.40;99.90;;;;;;5053653;28;20021;-74
2022/01/08 05:56:51;;;;;;;13.65;6.68;;;3.40;99.90;;;;;;5052466;28;20056;-74
2022/01/08 05:59:17;;;;;;;14.63;6.88;;;3.40;99.90;;;;;;5053573;28;20041;-75
2022/01/08 06:01:43;;;;;;;20.73;6.38;;;3.40;99.90;;;;;;5053552;28;20056;-75
2022/01/08 06:04:09;;;;;;;13.32;6.65;;;3.40;99.90;;;;;;5057847;28;20037;-75
2022/01/08 06:06:35;;;;;;;13.77;6.57;;;3.40;99.80;;;;;;5053527;28;20051;-75
2022/01/08 06:09:02;;;;;;;14.93;6.97;;;3.40;99.80;;;;;;5053563;28;20111;-75
2022/01/08 06:11:27;;;;;;;13.60;6.15;;;3.40;99.80;;;;;;5053877;28;20108;-75
2022/01/08 06:13:53;;;;;;;14.98;7.13;;;3.40;99.90;;;;;;5053593;28;20132;-76
2022/01/08 06:16:19;;;;;;;14.15;7.70;;;3.40;99.90;;;;;;5026093;28;20539;-75
2022/01/08 06:18:45;;;;;;;17.13;7.10;;;3.40;99.90;;;;;;5019571;28;20025;-73
2022/01/08 06:21:10;;;;;;;17.55;7.47;;;3.40;99.90;;;;;;5017982;28;20740;-74
2022/01/08 06:23:36;;;;;;;15.13;6.82;;;3.40;99.90;;;;;;5023948;28;20382;-75
2022/01/08 06:26:01;;;;;;;16.65;7.22;;;3.50;99.90;;;;;;5027682;28;20435;-75
2022/01/08 06:28:28;;;;;;;17.13;7.28;;;3.50;99.90;;;;;;5039231;28;20029;-75
2022/01/08 06:30:54;;;;;;;19.23;6.75;;;3.50;99.90;;;;;;5052952;28;20401;-75
2022/01/08 06:33:19;;;;;;;15.05;6.50;;;3.50;99.90;;;;;;5053370;28;20033;-75
2022/01/08 06:35:45;;;;;;;13.65;7.03;;;3.40;99.90;;;;;;5052647;28;20024;-75
2022/01/08 06:38:10;;;;;;;13.35;6.30;;;3.40;99.90;;;;;;5052765;28;20062;-74
2022/01/08 06:40:37;;;;;;;14.43;6.88;;;3.40;99.90;;;;;;5052963;28;20552;-74
2022/01/08 06:43:03;;;;;;;20.02;6.63;;;3.40;99.90;;;;;;5052674;28;20067;-74
2022/01/08 06:45:29;;;;;;;15.52;6.85;;;3.40;99.90;;;;;;5052890;28;20476;-75
2022/01/08 06:47:54;;;;;;;14.80;6.68;;;3.40;99.90;;;;;;5052879;28;20053;-75
2022/01/08 06:50:20;;;;;;;19.08;7.47;;;3.40;99.90;;;;;;5052533;28;20111;-74
2022/01/08 06:52:46;;;;;;;15.52;6.20;;;3.40;99.90;;;;;;5052181;28;20064;-74
2022/01/08 06:55:12;;;;;;;15.43;6.35;;;3.50;99.90;;;;;;5052798;28;20029;-74
2022/01/08 06:57:37;;;;;;;15.73;6.28;;;3.50;99.90;;;;;;5052616;28;20058;-74
2022/01/08 07:00:04;;;;;;;20.38;6.78;;;3.60;99.90;;;;;;5052559;28;20531;-74
2022/01/08 07:02:30;;;;;;;15.63;7.43;;;3.60;99.90;;;;;;5066633;28;20115;-76
2022/01/08 07:04:56;;;;;;;13.98;6.63;;;3.60;99.90;;;;;;5053981;28;20501;-74
2022/01/08 07:07:21;;;;;;;13.30;6.72;;;3.60;99.90;;;;;;5051982;28;20056;-74
2022/01/08 07:09:47;;;;;;;12.88;7.03;;;3.60;99.90;;;;;;5047163;28;20040;-74
2022/01/08 07:12:13;;;;;;;15.82;7.20;;;3.50;99.90;;;;;;5051979;28;20024;-74
2022/01/08 07:14:38;;;;;;;16.92;6.90;;;3.50;99.90;;;;;;5052697;28;20035;-75
2022/01/08 07:17:04;;;;;;;15.65;6.57;;;3.50;99.90;;;;;;5052127;28;20024;-75
2022/01/08 07:19:30;;;;;;;16.90;7.65;;;3.50;99.90;;;;;;5051964;28;20025;-75
2022/01/08 07:21:55;;;;;;;13.75;5.97;;;3.50;99.90;;;;;;5051771;28;20025;-75
2022/01/08 07:24:21;;;;;;;16.52;7.28;;;3.50;99.90;;;;;;5052047;28;20033;-80
2022/01/08 07:26:46;;;;;;;15.85;7.82;;;3.60;99.90;;;;;;5042418;28;20075;-78
2022/01/08 07:29:12;;;;;;;16.75;7.35;;;3.60;99.90;;;;;;5052776;28;20025;-78
2022/01/08 07:31:38;;;;;;;15.13;7.57;;;3.70;99.90;;;;;;5052213;28;20017;-78
2022/01/08 07:34:03;;;;;;;16.95;7.22;;;3.70;99.90;;;;;;5051331;28;20048;-78
2022/01/08 07:36:29;;;;;;;20.40;7.65;;;3.80;99.90;;;;;;5050463;28;20029;-77
2022/01/08 07:38:55;;;;;;;16.58;7.07;;;3.90;99.90;;;;;;5052005;28;20059;-77
2022/01/08 07:41:20;;;;;;;17.67;7.93;;;3.90;99.90;;;;;;5052036;28;20083;-77
2022/01/08 07:43:46;;;;;;;14.07;7.57;;;4.00;99.90;;;;;;5051746;28;20080;-77
2022/01/08 07:46:11;;;;;;;16.27;7.10;;;4.00;99.90;;;;;;5051546;28;20052;-77
2022/01/08 07:48:37;;;;;;;16.15;7.53;;;4.10;99.90;;;;;;5050178;28;20067;-77
2022/01/08 07:51:03;;;;;;;14.25;6.95;;;4.10;99.90;;;;;;5049654;28;20028;-78
2022/01/08 07:53:28;;;;;;;16.13;6.78;;;4.20;99.90;;;;;;5049871;28;20028;-77
2022/01/08 07:55:54;;;;;;;14.88;6.90;;;4.30;99.90;;;;;;5050232;28;20032;-77
2022/01/08 07:58:20;;;;;;;13.10;6.55;;;4.40;99.90;;;;;;5049941;28;20025;-77
2022/01/08 08:00:48;;;;;;;16.98;7.50;;;4.50;99.90;;;;;;5042312;28;20052;-79
2022/01/08 08:03:14;;;;;;;11.27;6.35;;;4.60;99.90;;;;;;5051652;28;20048;-78
2022/01/08 08:05:40;;;;;;;17.90;7.40;;;4.60;99.90;;;;;;5051819;28;20112;-79
2022/01/08 08:08:06;;;;;;;19.00;7.43;;;4.70;99.90;;;;;;5050374;28;20216;-79
2022/01/08 08:10:32;;;;;;;18.08;7.85;;;4.70;99.90;;;;;;5051029;28;20032;-80
2022/01/08 08:12:58;;;;;;;18.27;7.60;;;4.70;99.90;;;;;;5051482;28;20024;-76
2022/01/08 08:15:24;;;;;;;17.02;8.10;;;4.80;99.80;;;;;;5051468;28;20040;-78
2022/01/08 08:17:50;;;;;;;14.35;7.22;;;4.70;99.30;;;;;;5051599;28;20104;-80
2022/01/08 08:20:16;;;;;;;16.55;6.22;;;4.60;99.30;;;;;;5053513;28;20036;-77
2022/01/08 08:22:42;;;;;;;16.52;8.07;;;4.60;99.20;;;;;;5055168;28;20056;-77
2022/01/08 08:25:10;;;;;;;16.75;7.40;;;4.60;99.30;;;;;;5054931;28;20110;-78
2022/01/08 08:27:37;;;;;;;15.57;6.40;;;4.60;99.40;;;;;;5055295;28;20480;-76
2022/01/08 08:30:07;;;;;;;13.85;6.80;;;4.70;99.60;;;;;;5054962;28;20029;-76
2022/01/08 08:32:33;;;;;;;15.98;7.38;;;4.70;99.70;;;;;;5055323;28;20037;-79
2022/01/08 08:34:58;;;;;;;18.70;7.70;;;4.80;99.50;;;;;;5054581;28;20094;-78
2022/01/08 08:37:24;;;;;;;17.58;7.60;;;4.70;99.30;;;;;;5046370;28;20117;-80
2022/01/08 08:39:50;;;;;;;14.43;7.40;;;4.70;99.20;;;;;;5053217;28;20028;-77
2022/01/08 08:42:15;;;;;;;15.98;7.35;;;4.70;99.20;;;;;;5054804;28;20028;-79
2022/01/08 08:44:41;;;;;;;18.30;7.50;;;4.60;99.40;;;;;;5046341;28;20047;-79
2022/01/08 08:47:07;;;;;;;16.95;8.05;;;4.50;99.10;;;;;;5046051;28;20029;-80
2022/01/08 08:49:33;;;;;;;17.02;8.13;;;4.50;99.20;;;;;;5053250;28;20166;-80
2022/01/08 08:52:00;;;;;;;16.52;7.88;;;4.40;99.40;;;;;;5054832;28;20100;-82
2022/01/08 08:54:26;;;;;;;16.35;6.80;;;4.40;99.50;;;;;;5054648;28;20060;-82
2022/01/08 08:56:51;;;;;;;14.73;7.35;;;4.30;99.60;;;;;;5054517;28;20020;-82
2022/01/08 08:59:17;;;;;;;15.73;7.57;;;4.40;99.90;;;;;;5054605;28;20041;-78
2022/01/08 09:01:42;;;;;;;18.85;7.38;;;4.40;99.90;;;;;;5054742;28;20128;-79
2022/01/08 09:04:08;;;;;;;17.77;8.30;;;4.50;99.90;;;;;;5053952;28;20033;-79
2022/01/08 09:06:34;;;;;;;17.05;7.35;;;4.50;99.60;;;;;;5054511;28;20107;-78
2022/01/08 09:09:00;;;;;;;16.77;7.22;;;4.40;99.70;;;;;;5047698;28;20117;-81
2022/01/08 09:11:26;;;;;;;19.65;7.80;;;4.40;99.90;;;;;;5044418;28;20108;-76
2022/01/08 09:13:52;;;;;;;17.90;8.13;;;4.40;99.90;;;;;;5031569;28;20029;-74
2022/01/08 09:16:18;;;;;;;12.18;7.18;;;4.40;99.90;;;;;;5028602;28;20032;-78
2022/01/08 09:18:44;;;;;;;14.20;6.68;;;4.40;99.90;;;;;;5027317;28;20499;-76
2022/01/08 09:21:10;;;;;;;13.60;6.55;;;4.40;99.90;;;;;;5034613;28;20416;-78
2022/01/08 09:23:37;;;;;;;18.35;7.03;;;4.40;99.90;;;;;;5046689;28;20067;-80
2022/01/08 09:26:04;;;;;;;15.98;7.90;;;4.40;99.90;;;;;;5054453;28;20025;-79
2022/01/08 09:28:30;;;;;;;16.67;7.93;;;4.40;99.90;;;;;;5054432;28;20380;-82
2022/01/08 09:30:56;;;;;;;16.83;7.30;;;4.40;99.90;;;;;;5044059;28;20021;-81
2022/01/08 09:33:22;;;;;;;13.95;7.63;;;4.40;99.90;;;;;;5048168;28;20029;-80
2022/01/08 09:35:48;;;;;;;18.83;7.95;;;4.40;99.90;;;;;;5046305;28;20033;-76
2022/01/08 09:38:13;;;;;;;16.85;7.50;;;4.40;99.90;;;;;;5044062;28;20076;-77
2022/01/08 09:40:39;;;;;;;19.38;8.30;;;4.40;99.90;;;;;;5043325;28;20112;-76
2022/01/08 09:43:05;;;;;;;16.38;8.00;;;4.40;99.90;;;;;;5041647;28;21663;-77
2022/01/08 09:45:31;;;;;;;17.35;8.07;;;4.30;99.90;;;;;;5042461;28;20025;-78
2022/01/08 09:47:57;;;;;;;13.35;7.07;;;4.20;99.90;;;;;;5042075;28;20075;-78
2022/01/08 09:50:23;;;;;;;13.13;7.32;;;4.10;99.90;;;;;;5046407;28;20028;-77
2022/01/08 09:52:53;;;;;;;15.77;7.63;;;4.10;99.90;;;;;;5045546;28;20039;-77
2022/01/08 09:55:19;;;;;;;17.55;7.95;;;4.20;99.90;;;;;;5045364;28;20037;-78
2022/01/08 09:57:45;;;;;;;16.77;7.60;;;4.20;99.90;;;;;;5042042;28;20435;-80
2022/01/08 10:00:12;;;;;;;18.63;7.82;;;4.20;99.90;;;;;;5045284;28;20049;-78
2022/01/08 10:02:38;;;;;;;17.35;8.55;;;4.20;99.90;;;;;;5051656;28;20056;-78
2022/01/08 10:05:10;;;;;;;18.77;8.48;;;4.20;99.90;;;;;;5053551;28;20025;-78
2022/01/08 10:07:35;;;;;;;19.35;8.52;;;4.20;99.90;;;;;;5053051;28;20052;-81
2022/01/08 10:10:06;;;;;;;16.33;8.80;;;4.20;99.90;;;;;;5053827;28;20050;-78
2022/01/08 10:12:48;;;;;;;22.15;9.43;;;4.20;99.90;;;;;;5053419;28;20021;-78
2022/01/08 10:18:06;;;;;;;20.20;10.40;;;4.20;99.90;;;;;;5052548;28;20074;-74
2022/01/08 10:20:35;;;;;;;17.48;9.68;;;4.20;99.90;;;;;;5052972;28;20044;-74
2022/01/08 10:23:21;;;;;;;18.52;10.23;;;4.30;99.90;;;;;;5053164;28;20044;-74
2022/01/08 10:25:58;;;;;;;18.80;9.45;;;4.30;99.90;;;;;;5049754;28;20396;-76
2022/01/08 10:28:41;;;;;;;18.60;9.48;;;4.30;99.90;;;;;;5052232;28;20476;-75
2022/01/08 10:31:21;;;;;;;23.15;12.02;;;4.30;99.90;;;;;;5053040;28;20059;-76
2022/01/08 10:34:08;;;;;;;25.20;11.30;;;4.40;99.90;;;;;;5052726;28;20591;-76
2022/01/08 10:36:35;;;;;;;17.25;10.20;;;4.40;99.90;;;;;;5036171;28;20130;-76
2022/01/08 10:39:04;;;;;;;24.25;11.25;;;4.40;99.90;;;;;;5048069;28;20090;-79
2022/01/08 10:41:30;;;;;;;25.90;11.90;;;4.40;99.90;;;;;;5039771;28;20108;-77
2022/01/08 10:44:13;;;;;;;22.98;10.88;;;4.40;99.90;;;;;;5048762;28;20120;-77
2022/01/08 10:47:03;;;;;;;21.00;11.20;;;4.40;99.90;;;;;;5043077;28;20155;-78
2022/01/08 10:49:45;;;;;;;20.85;10.55;;;4.40;99.90;;;;;;5037554;28;20362;-78
2022/01/08 10:52:17;;;;;;;23.35;12.00;;;4.50;99.90;;;;;;5043098;28;20025;-76
2022/01/08 10:54:45;;;;;;;20.33;12.55;;;4.50;99.90;;;;;;5036046;28;20028;-77
2022/01/08 10:57:14;;;;;;;22.73;11.02;;;4.60;99.90;;;;;;5045616;28;20512;-77
2022/01/08 10:59:40;;;;;;;25.02;11.48;;;4.60;99.90;;;;;;5033588;28;20117;-75
2022/01/08 11:02:11;;;;;;;19.88;12.23;;;4.70;99.90;;;;;;5045705;28;20030;-74
2022/01/08 11:04:39;;;;;;;20.77;11.70;;;5.00;99.90;;;;;;5038753;28;20052;-78
2022/01/08 11:07:20;;;;;;;20.27;11.32;;;5.00;99.90;;;;;;5040662;28;20064;-79
2022/01/08 11:09:47;;;;;;;19.67;12.10;;;5.00;99.90;;;;;;5039389;28;20024;-75
2022/01/08 11:12:17;;;;;;;23.17;12.38;;;5.00;99.90;;;;;;5047927;28;20060;-74
2022/01/08 11:14:47;;;;;;;23.80;12.45;;;5.00;99.90;;;;;;5050500;28;20080;-74
2022/01/08 11:17:37;;;;;;;25.25;13.35;;;5.00;99.90;;;;;;5051087;28;20379;-74
2022/01/08 11:20:08;;;;;;;23.40;13.15;;;5.00;99.90;;;;;;5049098;28;20033;-84
2022/01/08 11:22:36;;;;;;;23.25;12.90;;;4.90;99.90;;;;;;5049868;28;20033;-80
2022/01/08 11:25:05;;;;;;;29.42;15.55;;;4.90;99.90;;;;;;5051745;28;20037;-75
2022/01/08 11:27:37;;;;;;;29.08;15.38;;;4.90;99.90;;;;;;5050952;28;20033;-77
2022/01/08 11:30:13;;;;;;;24.77;15.60;;;4.70;99.90;;;;;;5052038;28;20025;-77
2022/01/08 11:32:40;;;;;;;29.60;15.32;;;4.70;99.90;;;;;;5051524;28;20083;-78
2022/01/08 11:35:08;;;;;;;27.00;15.07;;;4.70;99.90;;;;;;5051963;28;20368;-76
2022/01/08 11:37:34;;;;;;;28.52;15.52;;;4.70;99.90;;;;;;5051256;28;20060;-78
2022/01/08 11:40:03;;;;;;;25.98;15.30;;;4.70;99.90;;;;;;5050918;28;20500;-76
2022/01/08 11:42:31;;;;;;;24.33;14.35;;;4.70;99.90;;;;;;5051339;28;20028;-76
2022/01/08 11:44:57;;;;;;;25.23;14.43;;;4.70;99.90;;;;;;5050253;28;20029;-76
2022/01/08 11:47:24;;;;;;;23.38;13.77;;;4.70;99.90;;;;;;5051864;28;20028;-75
2022/01/08 11:49:50;;;;;;;26.15;14.23;;;4.70;99.90;;;;;;5051724;28;20060;-74
2022/01/08 11:52:17;;;;;;;25.00;14.27;;;4.80;99.90;;;;;;5051288;28;20480;-76
2022/01/08 11:54:45;;;;;;;27.48;14.38;;;4.80;99.90;;;;;;5053297;28;20119;-74
2022/01/08 11:57:25;;;;;;;26.80;14.55;;;4.80;99.90;;;;;;5054402;28;20045;-76
2022/01/08 11:59:59;;;;;;;26.30;14.23;;;4.80;99.90;;;;;;5054189;28;20052;-74
2022/01/08 12:02:41;;;;;;;28.33;15.68;;;4.70;99.90;;;;;;5051514;28;20043;-75
2022/01/08 12:05:12;;;;;;;31.42;14.77;;;4.70;99.90;;;;;;5053095;28;20037;-79
2022/01/08 12:07:42;;;;;;;25.08;13.38;;;4.70;99.90;;;;;;5026825;28;20048;-78
2022/01/08 12:10:20;;;;;;;25.45;13.95;;;4.70;99.90;;;;;;5033940;28;20026;-76
2022/01/08 12:12:59;;;;;;;26.35;14.05;;;4.70;99.90;;;;;;5032429;28;20025;-76
2022/01/08 12:15:40;;;;;;;22.73;12.82;;;4.80;99.90;;;;;;5030343;28;20033;-75
2022/01/08 12:18:20;;;;;;;26.73;13.60;;;4.80;99.90;;;;;;5029631;28;20018;-79
2022/01/08 12:20:53;;;;;;;24.88;13.43;;;4.80;99.90;;;;;;5052707;28;20399;-75
2022/01/08 12:23:25;;;;;;;22.65;12.50;;;4.80;99.90;;;;;;5053827;28;20029;-77
2022/01/08 12:25:51;;;;;;;26.33;12.13;;;4.80;99.90;;;;;;5055564;28;20033;-76
2022/01/08 12:28:40;;;;;;;27.95;11.38;;;4.80;99.90;;;;;;5055071;28;20533;-78
2022/01/08 12:31:21;;;;;;;16.48;10.75;;;4.80;99.90;;;;;;5051822;28;20025;-80
2022/01/08 12:33:47;;;;;;;18.70;11.55;;;4.80;99.90;;;;;;5047856;28;20029;-76
2022/01/08 12:36:28;;;;;;;21.48;12.50;;;4.80;99.90;;;;;;5048681;28;20033;-78
2022/01/08 12:39:03;;;;;;;21.50;11.15;;;4.90;99.90;;;;;;5042222;28;20080;-76
2022/01/08 12:41:28;;;;;;;20.98;11.63;;;4.90;99.90;;;;;;5041198;28;20056;-76
2022/01/08 12:43:54;;;;;;;23.40;10.88;;;5.00;99.90;;;;;;5037549;28;20037;-76
2022/01/08 12:46:25;;;;;;;23.70;10.43;;;5.00;99.90;;;;;;5044819;28;20112;-75
2022/01/08 12:49:13;;;;;;;19.23;10.40;;;5.00;99.90;;;;;;5045679;28;20029;-75
2022/01/08 12:51:44;;;;;;;19.95;11.05;;;4.90;99.90;;;;;;5054606;28;20029;-76
2022/01/08 12:54:10;;;;;;;18.10;9.80;;;5.00;99.90;;;;;;5054777;28;20112;-76
2022/01/08 12:56:46;;;;;;;17.98;9.80;;;5.00;99.90;;;;;;5054731;28;20090;-75
2022/01/08 12:59:12;;;;;;;18.00;9.40;;;5.00;99.90;;;;;;5052304;28;20577;-76
2022/01/08 13:01:40;;;;;;;16.08;9.48;;;5.00;99.90;;;;;;5053875;28;20367;-75
2022/01/08 13:04:14;;;;;;;22.77;9.95;;;5.00;99.90;;;;;;5054438;28;20496;-76
2022/01/08 13:06:40;;;;;;;21.23;10.30;;;5.00;99.90;;;;;;5054223;28;20021;-76
2022/01/08 13:09:08;;;;;;;15.68;8.48;;;5.00;99.90;;;;;;5054706;28;20047;-76
2022/01/08 13:11:35;;;;;;;19.00;8.75;;;5.00;99.90;;;;;;5051210;28;20139;-74
2022/01/08 13:14:11;;;;;;;24.23;8.75;;;4.90;99.90;;;;;;5052551;28;20480;-74